メインページ
METAR-TAF:

METAR-TAF

空港 :

ロンドン・ヒースロー空港, イングランド

緯度: 51-29N, 経度: 000-27W, 海抜: 24m

現時点の気象観測

当レポートは18分前の06:20(UTC)に作成
の風 5kt
気温 4°C
湿度 87%
気圧 1021 hPa
視程10km以上

METAR: EGLL 040620Z AUTO 17005KT 9999 NCD 04/02 Q1021 TEMPO 4000 BR BKN004

時間: 07:38 (06:38 UTC)

予報

当レポートは1時間40分前の04:58(UTC)に作成
予報は04日の 06時(UTC)から 05日の 12時(UTC)まで有効
変向風 3kt
視程10km以上
高度4500ftの雲はほとんどない
確率 30% :
04日の 06時(UTC)から 04日の 08時(UTC)まで一時的に
視程: 3500m
高度400ftの千切れ雲あり
靄, 浅い霧
04日の 08時(UTC)から 04日の 11時(UTC)まで徐々に
の風 10kt
04日の 18時(UTC)から 04日の 21時(UTC)まで徐々に
南東の風 10kt

TAF: EGLL 040458Z 0406/0512 VRB03KT 9999 FEW045 PROB30 TEMPO 0406/0408 3500 BR MIFG BKN004 BECMG 0408/0411 19010KT BECMG 0418/0421 13010KT

4,000以上の空港の気象観測と天気予報(METAR報とTAF報)

利用可能な観測所は地図上に黄色い丸と赤い丸で示す。

丸の上にカーソルを重ねると観測所名を参照できる。

次にクリックすると気象観測と天気予報を参照できる。

マップの切り替え:黒色「×」印の緑ボタンをクリックして拡大、「-」印の緑ボタンをクリックして縮小、緑色の三角印をクリックして隣りの地図に切り替え


METAR-TAF: